Time;durP1;ratioP1;P1;durP2;ratioP2;P2;SDS_P1;SDS_P2;PMS_P1;PMS_P2;Temp;Humidity;BMP_temperature;BMP_pressure;BME280_temperature;BME280_humidity;BME280_pressure;Samples;Min_cycle;Max_cycle;Signal;HPM_P1;HPM_P2
2022/04/07 00:03:55;;;;;;;9.45;6.85;;;;;;;8.39;100.00;98926.31;10220505;28;20129;-66
2022/04/07 00:08:51;;;;;;;7.90;5.97;;;;;;;8.40;100.00;98912.38;10228540;28;20416;-66
2022/04/07 00:13:48;;;;;;;10.43;6.30;;;;;;;8.45;100.00;98913.25;10223114;28;20112;-68
2022/04/07 00:18:45;;;;;;;9.25;5.85;;;;;;;8.46;100.00;98896.56;10227722;28;20042;-69
2022/04/07 00:23:41;;;;;;;10.93;6.65;;;;;;;8.45;100.00;98886.84;10223435;28;20634;-68
2022/04/07 00:28:37;;;;;;;7.97;5.65;;;;;;;8.49;100.00;98870.56;10227137;28;20124;-68
2022/04/07 00:33:34;;;;;;;9.60;6.80;;;;;;;8.51;100.00;98858.19;10218517;28;20045;-68
2022/04/07 00:38:30;;;;;;;7.45;5.60;;;;;;;8.51;100.00;98850.00;10227911;28;20045;-70
2022/04/07 00:43:29;;;;;;;8.00;5.90;;;;;;;8.53;100.00;98855.91;10223404;28;20045;-71
2022/04/07 00:48:26;;;;;;;10.07;6.43;;;;;;;8.54;100.00;98846.59;10225619;28;20042;-70
2022/04/07 00:53:23;;;;;;;10.55;6.72;;;;;;;8.53;100.00;98839.56;10220187;28;20053;-70
2022/04/07 00:58:22;;;;;;;8.25;6.00;;;;;;;8.54;100.00;98813.91;10225690;28;20042;-69
2022/04/07 01:03:19;;;;;;;9.05;5.65;;;;;;;8.54;100.00;98819.38;10211703;28;20139;-69
2022/04/07 01:08:16;;;;;;;8.55;5.20;;;;;;;8.50;100.00;98810.31;10221345;28;20147;-68
2022/04/07 01:13:13;;;;;;;11.73;6.68;;;;;;;8.50;100.00;98807.59;10224714;28;20503;-68
2022/04/07 01:18:09;;;;;;;9.30;7.25;;;;;;;8.46;100.00;98801.25;10232314;28;20136;-68
2022/04/07 01:23:07;;;;;;;11.25;7.50;;;;;;;8.43;100.00;98780.16;10234753;28;20045;-67
2022/04/07 01:28:04;;;;;;;10.05;8.00;;;;;;;8.44;100.00;98776.28;10227892;28;20065;-67
2022/04/07 01:33:01;;;;;;;10.35;7.38;;;;;;;8.41;100.00;98760.66;10234522;28;20100;-66
2022/04/07 01:38:00;;;;;;;13.70;9.05;;;;;;;8.41;100.00;98766.09;10231503;28;20111;-66
2022/04/07 01:42:56;;;;;;;12.77;6.78;;;;;;;8.38;100.00;98747.72;10234257;28;20069;-67
2022/04/07 01:47:54;;;;;;;8.95;6.63;;;;;;;8.38;100.00;98734.09;10220048;28;20045;-66
2022/04/07 01:52:51;;;;;;;10.13;6.88;;;;;;;8.41;100.00;98714.38;10232330;28;20049;-66
2022/04/07 01:57:49;;;;;;;10.00;6.88;;;;;;;8.45;100.00;98707.06;10226272;28;20813;-66
2022/04/07 02:02:46;;;;;;;10.02;6.75;;;;;;;8.47;100.00;98704.78;10224758;28;20049;-66
2022/04/07 02:07:43;;;;;;;10.02;5.95;;;;;;;8.49;100.00;98701.69;10228510;28;20128;-67
2022/04/07 02:12:41;;;;;;;12.07;6.05;;;;;;;8.50;100.00;98685.00;10225223;28;20068;-66
2022/04/07 02:17:38;;;;;;;11.93;7.05;;;;;;;8.51;100.00;98672.97;10227629;28;20049;-66
2022/04/07 02:22:34;;;;;;;9.68;5.80;;;;;;;8.52;100.00;98663.66;10233554;28;20155;-70
2022/04/07 02:27:41;;;;;;;7.50;5.80;;;;;;;8.54;100.00;98666.84;10222385;28;20153;-70
2022/04/07 02:32:37;;;;;;;8.98;6.00;;;;;;;8.51;100.00;98651.19;10226955;28;20491;-70
2022/04/07 02:37:34;;;;;;;10.77;6.45;;;;;;;8.53;100.00;98648.91;10225556;28;20723;-69
2022/04/07 02:42:29;;;;;;;7.90;5.53;;;;;;;8.56;100.00;98653.66;10233253;28;20048;-69
2022/04/07 02:47:31;;;;;;;9.57;6.35;;;;;;;8.60;100.00;98638.16;10220838;28;20454;-69
2022/04/07 02:52:28;;;;;;;9.85;6.35;;;;;;;8.59;100.00;98622.97;10232521;28;20136;-70
2022/04/07 02:57:25;;;;;;;10.50;5.43;;;;;;;8.58;100.00;98613.19;10223958;28;20221;-69
2022/04/07 03:02:22;;;;;;;8.27;6.00;;;;;;;8.47;100.00;98601.31;10227910;28;20080;-69
2022/04/07 03:07:19;;;;;;;10.07;7.72;;;;;;;8.41;100.00;98580.94;10224102;28;20137;-69
2022/04/07 03:12:17;;;;;;;10.00;7.20;;;;;;;8.34;100.00;98580.75;10224610;28;20609;-69
2022/04/07 03:17:13;;;;;;;11.13;8.10;;;;;;;8.36;100.00;98562.13;10225595;28;20100;-69
2022/04/07 03:22:12;;;;;;;11.20;9.25;;;;;;;8.38;100.00;98554.38;10230443;28;20042;-69
2022/04/07 03:27:09;;;;;;;12.18;9.13;;;;;;;8.39;100.00;98561.41;10228692;28;20045;-69
2022/04/07 03:32:06;;;;;;;11.25;8.57;;;;;;;8.43;100.00;98535.06;10230370;28;20075;-69
2022/04/07 03:37:04;;;;;;;15.30;8.90;;;;;;;8.49;100.00;98521.94;10219931;28;20131;-69
2022/04/07 03:42:00;;;;;;;14.20;8.68;;;;;;;8.53;100.00;98518.16;10230557;28;20045;-69
2022/04/07 03:46:58;;;;;;;10.90;8.13;;;;;;;8.56;100.00;98495.66;10226473;28;20103;-69
2022/04/07 03:51:55;;;;;;;10.95;7.85;;;;;;;8.59;100.00;98494.94;10226374;28;20056;-69
2022/04/07 03:56:51;;;;;;;9.63;7.60;;;;;;;8.58;100.00;98487.91;10221603;28;20065;-69
2022/04/07 04:01:48;;;;;;;10.05;6.38;;;;;;;8.61;100.00;98478.25;10220420;28;20077;-69
2022/04/07 04:06:48;;;;;;;8.68;6.28;;;;;;;8.64;100.00;98469.34;10228029;28;20085;-69
2022/04/07 04:11:44;;;;;;;10.73;5.75;;;;;;;8.59;100.00;98466.91;10228187;28;20081;-66
2022/04/07 04:16:42;;;;;;;10.20;5.97;;;;;;;8.59;100.00;98466.91;10208617;28;20595;-69
2022/04/07 04:21:38;;;;;;;10.25;5.20;;;;;;;8.57;100.00;98464.56;10212616;28;20083;-69
2022/04/07 04:26:35;;;;;;;5.78;3.80;;;;;;;8.57;100.00;98455.59;10203456;28;20124;-70
2022/04/07 04:31:31;;;;;;;5.88;4.93;;;;;;;8.55;100.00;98428.72;10204638;28;20060;-71
2022/04/07 04:36:28;;;;;;;10.02;4.47;;;;;;;8.59;100.00;98445.13;10212852;28;20139;-68
2022/04/07 04:41:25;;;;;;;7.78;4.35;;;;;;;8.61;100.00;98427.28;10214529;28;20049;-68
2022/04/07 04:46:22;;;;;;;8.25;4.85;;;;;;;8.59;100.00;98418.66;10208794;28;20052;-69
2022/04/07 04:51:18;;;;;;;7.40;4.90;;;;;;;8.53;100.00;98419.31;10226277;28;20073;-67
2022/04/07 04:56:15;;;;;;;7.20;4.85;;;;;;;8.51;100.00;98406.06;10214082;28;20041;-67
2022/04/07 05:01:12;;;;;;;8.70;5.50;;;;;;;8.51;100.00;98400.59;10217818;28;20747;-67
2022/04/07 05:06:08;;;;;;;7.07;5.05;;;;;;;8.53;100.00;98386.63;10212301;28;20107;-65
2022/04/07 05:11:05;;;;;;;6.43;4.60;;;;;;;8.53;100.00;98392.88;10213287;28;20448;-65
2022/04/07 05:16:01;;;;;;;9.60;5.38;;;;;;;8.55;100.00;98390.56;10206298;28;20080;-69
2022/04/07 05:20:58;;;;;;;7.80;5.45;;;;;;;8.56;100.00;98370.38;10210158;28;20578;-69
2022/04/07 05:25:56;;;;;;;7.38;4.40;;;;;;;8.53;100.00;98365.63;10207019;28;20045;-69
2022/04/07 05:30:53;;;;;;;7.38;4.05;;;;;;;8.59;100.00;98357.97;10213461;28;20049;-68
2022/04/07 05:35:49;;;;;;;6.35;3.72;;;;;;;8.56;100.00;98362.22;10197466;28;20050;-68
2022/04/07 05:40:46;;;;;;;7.13;3.83;;;;;;;8.59;100.00;98372.38;10203074;28;20104;-68
2022/04/07 05:45:45;;;;;;;7.43;2.85;;;;;;;8.56;100.00;98326.78;10196241;28;20622;-68
2022/04/07 05:50:41;;;;;;;4.78;2.85;;;;;;;8.61;100.00;98329.22;10197932;28;20104;-68
2022/04/07 05:55:38;;;;;;;5.47;2.92;;;;;;;8.55;100.00;98319.75;10199974;28;20120;-68
2022/04/07 06:00:38;;;;;;;8.65;3.50;;;;;;;8.48;100.00;98303.28;10214086;28;20471;-67
2022/04/07 06:05:35;;;;;;;6.25;3.20;;;;;;;8.41;100.00;98292.28;10221066;28;20049;-67
2022/04/07 06:10:32;;;;;;;8.60;3.97;;;;;;;8.42;100.00;98280.22;10227947;28;20065;-67
2022/04/07 06:15:30;;;;;;;7.05;3.72;;;;;;;8.41;100.00;98282.16;10199963;28;20073;-66
2022/04/07 06:20:26;;;;;;;7.75;3.70;;;;;;;8.43;100.00;98257.31;10228529;28;20821;-66
2022/04/07 06:25:23;;;;;;;11.38;4.20;;;;;;;8.49;100.00;98260.50;10229711;28;20675;-66
2022/04/07 06:30:20;;;;;;;9.43;5.00;;;;;;;8.53;100.00;98234.91;10225306;28;20065;-67
2022/04/07 06:35:16;;;;;;;7.70;4.63;;;;;;;8.58;100.00;98237.31;10209617;28;20080;-66
2022/04/07 06:40:13;;;;;;;11.55;4.68;;;;;;;8.64;100.00;98214.06;10195012;28;20124;-67
2022/04/07 06:45:09;;;;;;;8.88;4.63;;;;;;;8.78;100.00;98210.78;10194262;28;20833;-66
2022/04/07 06:50:11;;;;;;;8.75;4.47;;;;;;;8.87;100.00;98194.16;10189164;28;20057;-67
2022/04/07 06:55:09;;;;;;;9.63;5.17;;;;;;;8.95;100.00;98190.38;10190896;28;21398;-66
2022/04/07 07:00:11;;;;;;;9.20;3.63;;;;;;;8.96;100.00;98164.72;10203179;28;20107;-66
2022/04/07 07:05:07;;;;;;;7.15;3.38;;;;;;;9.00;100.00;98160.06;10203735;28;20215;-67
2022/04/07 07:10:04;;;;;;;8.02;3.90;;;;;;;9.08;100.00;98150.06;10187040;28;20515;-67
2022/04/07 07:15:01;;;;;;;10.02;4.28;;;;;;;9.13;100.00;98119.75;10189032;28;20471;-67
2022/04/07 07:20:01;;;;;;;8.80;3.60;;;;;;;9.16;100.00;98101.88;10191571;28;20089;-67
2022/04/07 07:24:58;;;;;;;6.88;2.90;;;;;;;9.20;100.00;98097.25;10196691;28;20752;-67
2022/04/07 07:29:54;;;;;;;7.45;3.08;;;;;;;9.18;100.00;98089.44;10192958;28;20037;-67
2022/04/07 07:34:51;;;;;;;11.35;3.22;;;;;;;9.20;100.00;98072.72;10198030;28;20132;-67
2022/04/07 07:39:48;;;;;;;8.07;2.58;;;;;;;9.08;100.00;98056.63;10209311;28;20033;-67
2022/04/07 07:44:44;;;;;;;7.57;2.63;;;;;;;8.91;100.00;98031.50;10216473;28;20479;-67
2022/04/07 07:49:41;;;;;;;11.10;3.22;;;;;;;8.89;100.00;98006.56;10218305;28;20659;-67
2022/04/07 07:54:37;;;;;;;8.38;2.72;;;;;;;8.80;100.00;98008.81;10210966;28;20041;-67
2022/04/07 07:59:34;;;;;;;11.05;3.55;;;;;;;8.60;100.00;97983.66;10196943;28;20037;-67
2022/04/07 08:04:30;;;;;;;9.82;3.05;;;;;;;8.48;100.00;97976.50;10209669;28;20049;-66
2022/04/07 08:09:27;;;;;;;9.88;3.08;;;;;;;8.42;100.00;97962.47;10201862;28;20123;-66
2022/04/07 08:14:23;;;;;;;7.82;3.20;;;;;;;8.35;100.00;97950.66;10186812;28;20073;-66
2022/04/07 08:19:20;;;;;;;6.78;3.15;;;;;;;8.34;100.00;97938.97;10193969;28;20136;-66
2022/04/07 08:24:19;;;;;;;9.57;3.70;;;;;;;8.36;100.00;97928.50;10191411;28;20107;-66
2022/04/07 08:29:15;;;;;;;9.68;3.85;;;;;;;8.30;100.00;97932.69;10186598;28;20129;-67
2022/04/07 08:34:12;;;;;;;8.00;3.53;;;;;;;8.27;100.00;97935.38;10199218;28;20049;-67
2022/04/07 08:39:09;;;;;;;11.00;3.28;;;;;;;8.23;100.00;97924.44;10184625;28;20073;-66
2022/04/07 08:44:06;;;;;;;13.13;3.50;;;;;;;8.19;100.00;97910.81;10189588;28;20504;-66
2022/04/07 08:49:04;;;;;;;9.20;3.17;;;;;;;8.12;100.00;97899.84;10188117;28;20045;-66
2022/04/07 08:54:01;;;;;;;6.88;3.47;;;;;;;8.16;100.00;97878.88;10181495;28;20081;-66
2022/04/07 08:58:57;;;;;;;10.07;3.40;;;;;;;8.23;100.00;97873.50;10180198;28;20166;-66
2022/04/07 09:03:54;;;;;;;10.48;2.55;;;;;;;8.19;100.00;97867.25;10195421;28;20053;-66
2022/04/07 09:08:50;;;;;;;3.63;0.73;;;;;;;7.51;100.00;97979.78;10194567;28;20582;-66
2022/04/07 09:13:49;;;;;;;3.33;0.68;;;;;;;6.95;100.00;97984.66;10219448;28;20517;-65
2022/04/07 09:18:49;;;;;;;1.58;0.50;;;;;;;6.44;100.00;97978.63;10223118;28;20100;-67
2022/04/07 09:23:45;;;;;;;4.50;1.67;;;;;;;6.19;100.00;97984.31;10215742;28;20136;-66
2022/04/07 09:28:42;;;;;;;0.95;0.30;;;;;;;6.05;100.00;97979.34;10203877;28;20088;-66
2022/04/07 09:33:39;;;;;;;2.22;0.40;;;;;;;5.97;100.00;97963.31;10200619;28;20118;-67
2022/04/07 09:38:37;;;;;;;2.58;0.75;;;;;;;5.77;100.00;97970.56;10211780;28;20034;-66
2022/04/07 09:43:45;;;;;;;4.55;0.95;;;;;;;5.82;100.00;97956.72;10209683;28;20679;-66
2022/04/07 09:49:00;;;;;;;2.88;0.70;;;;;;;5.91;100.00;97962.75;10201453;28;20092;-67
2022/04/07 09:53:57;;;;;;;2.45;1.08;;;;;;;5.84;100.00;97963.38;10208804;28;20046;-66
2022/04/07 09:58:55;;;;;;;2.28;0.60;;;;;;;5.90;100.00;97974.75;10200514;28;20045;-66
2022/04/07 10:03:52;;;;;;;2.38;0.45;;;;;;;5.73;100.00;97961.56;10186815;28;21262;-66
2022/04/07 10:08:50;;;;;;;6.72;0.73;;;;;;;5.60;100.00;97958.97;10192484;28;20684;-65
2022/04/07 10:13:46;;;;;;;3.83;0.43;;;;;;;5.47;100.00;97943.94;10203571;28;20180;-67
2022/04/07 10:19:07;;;;;;;3.30;0.50;;;;;;;5.36;100.00;97948.31;10197593;28;20125;-66
2022/04/07 10:24:16;;;;;;;3.10;0.52;;;;;;;5.48;100.00;97931.97;10206794;28;20077;-66
2022/04/07 10:29:23;;;;;;;2.25;0.40;;;;;;;5.52;100.00;97926.63;10203819;28;20121;-66
2022/04/07 10:34:30;;;;;;;1.98;0.60;;;;;;;5.18;100.00;97921.59;10201775;28;20092;-66
2022/04/07 10:39:31;;;;;;;4.63;0.90;;;;;;;5.19;100.00;97933.97;10194782;28;20081;-66
2022/04/07 10:44:28;;;;;;;1.73;0.60;;;;;;;5.11;100.00;97916.00;10195412;28;20152;-67
2022/04/07 10:49:24;;;;;;;2.65;0.60;;;;;;;5.03;100.00;97877.09;10184086;28;20160;-66
2022/04/07 10:54:22;;;;;;;6.95;1.10;;;;;;;5.02;100.00;97858.53;10193280;28;20048;-66
2022/04/07 10:59:21;;;;;;;3.35;0.70;;;;;;;4.94;100.00;97845.94;10192853;28;20093;-66
2022/04/07 11:04:18;;;;;;;2.58;0.52;;;;;;;4.91;100.00;97906.22;10210735;28;20172;-65
2022/04/07 11:09:17;;;;;;;4.45;0.68;;;;;;;4.91;100.00;97850.13;10209982;28;20493;-65
2022/04/07 11:14:13;;;;;;;1.63;0.47;;;;;;;4.96;100.00;97824.72;10209112;28;20386;-65
2022/04/07 11:19:37;;;;;;;3.05;0.63;;;;;;;4.96;100.00;97843.66;10206568;28;20107;-66
2022/04/07 11:24:39;;;;;;;1.88;0.55;;;;;;;5.08;100.00;97840.84;10194645;28;20151;-65
2022/04/07 11:29:36;;;;;;;2.25;0.82;;;;;;;6.34;100.00;97828.00;10201343;28;20042;-66
2022/04/07 11:34:35;;;;;;;3.13;0.70;;;;;;;6.84;100.00;97828.06;10193862;28;20144;-66
2022/04/07 11:39:33;;;;;;;2.60;0.80;;;;;;;7.99;100.00;97819.59;10197646;28;20107;-67
2022/04/07 11:44:30;;;;;;;3.78;0.90;;;;;;;8.98;100.00;97802.69;10200400;28;20099;-67
2022/04/07 11:49:28;;;;;;;3.13;0.70;;;;;;;9.48;100.00;97808.44;10200604;28;20092;-66
2022/04/07 11:54:27;;;;;;;3.38;1.05;;;;;;;8.69;100.00;97822.66;10202407;28;20146;-64
2022/04/07 11:59:23;;;;;;;2.75;0.80;;;;;;;8.96;100.00;97798.78;10198369;28;20919;-65
2022/04/07 12:04:20;;;;;;;3.13;0.82;;;;;;;9.18;100.00;97794.22;10200737;28;20042;-65
2022/04/07 12:09:17;;;;;;;5.43;0.80;;;;;;;9.63;100.00;97775.78;10182781;28;20062;-65
2022/04/07 12:14:15;;;;;;;2.83;0.70;;;;;;;9.22;100.00;97795.03;10196735;28;20052;-65
2022/04/07 12:19:13;;;;;;;2.22;0.75;;;;;;;10.10;100.00;97760.34;10201270;28;20069;-65
2022/04/07 12:24:13;;;;;;;5.53;1.13;;;;;;;9.86;100.00;97768.09;10195451;28;20050;-65
2022/04/07 12:29:31;;;;;;;6.00;0.90;;;;;;;10.13;100.00;97754.13;10193842;28;20045;-65
2022/04/07 12:34:29;;;;;;;7.32;1.70;;;;;;;9.77;100.00;97750.50;10196446;28;20054;-64
2022/04/07 12:39:33;;;;;;;6.30;1.10;;;;;;;10.91;100.00;97714.38;10206478;28;20056;-65
2022/04/07 12:44:30;;;;;;;3.25;0.60;;;;;;;11.85;100.00;97715.59;10202366;28;20688;-65
2022/04/07 12:49:37;;;;;;;4.68;1.00;;;;;;;12.81;100.00;97722.38;10225016;28;20095;-65
2022/04/07 12:54:35;;;;;;;3.30;0.93;;;;;;;12.88;100.00;97723.50;10207658;28;20048;-68
2022/04/07 12:59:32;;;;;;;5.18;1.10;;;;;;;12.31;100.00;97736.47;10210469;28;20068;-66
2022/04/07 13:04:48;;;;;;;5.30;1.10;;;;;;;10.95;100.00;97737.00;10190461;28;20045;-65
2022/04/07 13:09:47;;;;;;;4.53;1.02;;;;;;;10.96;100.00;97711.22;10184039;28;20673;-65
2022/04/07 13:14:44;;;;;;;4.10;0.80;;;;;;;11.26;100.00;97696.31;10179362;28;20072;-65
2022/04/07 13:19:41;;;;;;;4.93;0.80;;;;;;;10.30;100.00;97726.09;10193152;28;20053;-66
2022/04/07 13:24:38;;;;;;;5.30;1.58;;;;;;;9.89;100.00;97723.66;10193065;28;20077;-67
2022/04/07 13:29:36;;;;;;;12.32;3.10;;;;;;;9.36;100.00;97735.13;10199662;28;20729;-67
2022/04/07 13:34:33;;;;;;;7.93;2.00;;;;;;;8.98;100.00;97720.91;10191164;28;20049;-67
2022/04/07 13:39:29;;;;;;;5.43;1.67;;;;;;;8.90;100.00;97743.81;10192897;28;20041;-68
2022/04/07 13:44:27;;;;;;;3.47;1.23;;;;;;;8.92;100.00;97738.78;10191664;28;20731;-66
2022/04/07 13:49:25;;;;;;;4.22;1.20;;;;;;;8.71;100.00;97750.31;10205222;28;20042;-67
2022/04/07 13:54:23;;;;;;;6.20;1.50;;;;;;;8.60;100.00;97744.75;10220901;28;20140;-66
2022/04/07 13:59:19;;;;;;;5.00;1.30;;;;;;;9.13;100.00;97726.44;10215110;28;20041;-65
2022/04/07 14:04:16;;;;;;;4.70;0.93;;;;;;;9.64;100.00;97733.69;10208919;28;20060;-65
2022/04/07 14:09:13;;;;;;;5.63;1.65;;;;;;;9.18;100.00;97739.72;10220324;28;20513;-65
2022/04/07 14:14:09;;;;;;;6.03;1.33;;;;;;;9.97;100.00;97729.91;10212147;28;20072;-65
2022/04/07 14:19:06;;;;;;;5.10;1.00;;;;;;;9.88;100.00;97719.34;10222538;28;20052;-64
2022/04/07 14:24:03;;;;;;;6.68;1.00;;;;;;;10.31;100.00;97705.81;10213575;28;20053;-64
2022/04/07 14:29:00;;;;;;;5.43;1.20;;;;;;;10.08;100.00;97688.97;10212528;28;20074;-64
2022/04/07 14:33:56;;;;;;;5.82;1.20;;;;;;;9.73;100.00;97690.47;10223990;28;20520;-65
2022/04/07 14:38:53;;;;;;;5.72;1.30;;;;;;;9.22;100.00;97688.72;10219769;28;20076;-64
2022/04/07 14:43:50;;;;;;;4.93;1.00;;;;;;;8.91;100.00;97731.78;10215929;28;20697;-63
2022/04/07 14:48:52;;;;;;;6.57;1.40;;;;;;;8.08;100.00;97719.41;10214548;28;20060;-64
2022/04/07 14:53:48;;;;;;;8.88;1.50;;;;;;;7.87;100.00;97735.50;10217351;28;20041;-63
2022/04/07 14:58:45;;;;;;;8.45;1.67;;;;;;;7.61;100.00;97777.94;10213556;28;20052;-63
2022/04/07 15:03:42;;;;;;;4.65;0.85;;;;;;;6.56;100.00;97793.09;10221910;28;20049;-63
2022/04/07 15:08:38;;;;;;;4.07;0.28;;;;;;;6.40;100.00;97776.94;10217067;28;20049;-63
2022/04/07 15:13:35;;;;;;;2.20;0.40;;;;;;;6.41;100.00;97768.44;10201783;28;20509;-62
2022/04/07 15:18:32;;;;;;;1.75;0.50;;;;;;;6.58;100.00;97777.22;10207076;28;20046;-66
2022/04/07 15:23:29;;;;;;;2.33;0.52;;;;;;;7.62;100.00;97762.41;10201712;28;20037;-65
2022/04/07 15:28:26;;;;;;;1.48;0.30;;;;;;;7.51;100.00;97768.50;10205196;28;20050;-64
2022/04/07 15:33:22;;;;;;;4.90;0.75;;;;;;;8.35;100.00;97757.34;10211935;28;20123;-64
2022/04/07 15:38:19;;;;;;;4.50;0.73;;;;;;;8.04;100.00;97745.78;10191252;28;20095;-64
2022/04/07 15:43:15;;;;;;;4.25;0.80;;;;;;;7.33;100.00;97746.53;10193077;28;20485;-64
2022/04/07 15:48:12;;;;;;;7.05;1.48;;;;;;;7.23;100.00;97763.47;10197817;28;20533;-63
2022/04/07 15:53:09;;;;;;;8.00;0.80;;;;;;;7.17;100.00;97764.91;10202380;28;20498;-64
2022/04/07 15:58:06;;;;;;;5.25;0.90;;;;;;;7.15;100.00;97764.53;10199397;28;20042;-63
2022/04/07 16:03:03;;;;;;;5.63;0.90;;;;;;;7.12;100.00;97767.97;10203610;28;20492;-64
2022/04/07 16:07:59;;;;;;;6.30;0.65;;;;;;;7.20;100.00;97772.38;10194294;28;20656;-64
2022/04/07 16:12:57;;;;;;;6.32;0.52;;;;;;;7.29;100.00;97751.13;10178172;28;20514;-64
2022/04/07 16:17:53;;;;;;;3.67;0.50;;;;;;;7.73;100.00;97742.34;10199196;28;20041;-64
2022/04/07 16:22:50;;;;;;;3.50;1.00;;;;;;;8.85;100.00;97749.63;10194186;28;20068;-64
2022/04/07 16:27:47;;;;;;;3.10;0.50;;;;;;;9.21;100.00;97758.84;10185767;28;20061;-64
2022/04/07 16:32:44;;;;;;;2.83;0.70;;;;;;;8.62;100.00;97780.59;10192804;28;20116;-63
2022/04/07 16:37:41;;;;;;;3.47;0.68;;;;;;;8.02;100.00;97780.75;10207108;28;20724;-65
2022/04/07 16:42:37;;;;;;;7.07;0.95;;;;;;;7.83;100.00;97789.09;10190561;28;20049;-64
2022/04/07 16:47:34;;;;;;;4.65;0.73;;;;;;;7.71;100.00;97776.53;10202843;28;20060;-67
2022/04/07 16:52:32;;;;;;;6.78;1.27;;;;;;;7.50;100.00;97806.94;10200876;28;20054;-66
2022/04/07 16:57:28;;;;;;;4.80;0.88;;;;;;;7.57;100.00;97788.00;10204186;28;20053;-66
2022/04/07 17:02:27;;;;;;;2.83;0.55;;;;;;;7.47;100.00;97804.94;10216207;28;20651;-65
2022/04/07 17:07:24;;;;;;;5.10;0.75;;;;;;;7.30;100.00;97796.19;10210202;28;20140;-63
2022/04/07 17:12:26;;;;;;;4.90;1.05;;;;;;;7.23;100.00;97793.34;10205727;28;20750;-63
2022/04/07 17:17:24;;;;;;;2.85;0.60;;;;;;;7.16;100.00;97790.53;10188775;28;20104;-65
2022/04/07 17:22:21;;;;;;;2.75;0.80;;;;;;;6.95;100.00;97797.22;10203257;28;20045;-67
2022/04/07 17:27:18;;;;;;;5.10;0.82;;;;;;;6.90;100.00;97830.13;10209205;28;20083;-66
2022/04/07 17:32:16;;;;;;;3.55;1.17;;;;;;;6.43;100.00;97835.91;10217179;28;20045;-66
2022/04/07 17:37:13;;;;;;;3.58;0.70;;;;;;;6.25;100.00;97846.44;10217684;28;20057;-66
2022/04/07 17:42:14;;;;;;;5.47;1.10;;;;;;;6.22;100.00;97847.16;10210754;28;20132;-66
2022/04/07 17:47:11;;;;;;;7.25;1.17;;;;;;;6.16;100.00;97870.31;10198793;28;20104;-61
2022/04/07 17:52:08;;;;;;;5.32;1.30;;;;;;;6.15;100.00;97868.72;10208024;28;20061;-64
2022/04/07 17:57:05;;;;;;;5.57;1.45;;;;;;;6.14;100.00;97878.00;10193902;28;20084;-62
2022/04/07 18:02:01;;;;;;;7.20;1.75;;;;;;;6.08;100.00;97897.28;10207333;28;20046;-64
2022/04/07 18:06:58;;;;;;;4.25;1.52;;;;;;;6.09;100.00;97904.28;10220189;28;20074;-65
2022/04/07 18:11:55;;;;;;;6.53;1.42;;;;;;;6.07;100.00;97895.69;10209208;28;20042;-66
2022/04/07 18:16:51;;;;;;;9.68;1.60;;;;;;;6.08;100.00;97902.72;10216541;28;20567;-65
2022/04/07 18:21:50;;;;;;;10.63;1.75;;;;;;;6.15;100.00;97909.41;10226092;28;20053;-64
2022/04/07 18:26:47;;;;;;;6.57;1.48;;;;;;;6.21;100.00;97916.13;10218932;28;20056;-65
2022/04/07 18:31:44;;;;;;;12.10;1.60;;;;;;;6.31;100.00;97920.97;10227739;28;20073;-65
2022/04/07 18:36:42;;;;;;;8.98;1.48;;;;;;;6.28;100.00;97938.75;10206650;28;20486;-65
2022/04/07 18:41:38;;;;;;;13.18;2.35;;;;;;;6.39;100.00;97911.84;10208299;28;20536;-65
2022/04/07 18:46:35;;;;;;;7.35;1.17;;;;;;;6.33;100.00;97929.56;10205307;28;20049;-65
2022/04/07 18:51:37;;;;;;;6.03;1.08;;;;;;;6.40;100.00;97945.97;10207186;28;20107;-66
2022/04/07 18:56:33;;;;;;;8.95;1.48;;;;;;;6.35;100.00;97954.41;10224172;28;20046;-64
2022/04/07 19:01:31;;;;;;;6.32;1.30;;;;;;;6.11;100.00;97967.09;10185207;28;20068;-64
2022/04/07 19:06:28;;;;;;;9.05;1.40;;;;;;;6.03;100.00;97951.81;10217788;28;20632;-65
2022/04/07 19:11:24;;;;;;;6.32;1.23;;;;;;;6.00;100.00;97960.66;10225206;28;20080;-65
2022/04/07 19:16:21;;;;;;;10.52;1.13;;;;;;;5.91;100.00;97965.47;10213395;28;20551;-65
2022/04/07 19:21:18;;;;;;;7.60;1.38;;;;;;;6.05;100.00;97949.53;10228524;28;20075;-66
2022/04/07 19:26:15;;;;;;;12.75;1.95;;;;;;;6.09;100.00;97942.25;10201369;28;20045;-66
2022/04/07 19:31:22;;;;;;;10.15;1.67;;;;;;;6.19;100.00;97945.53;10272708;28;20706;-65
2022/04/07 19:36:18;;;;;;;7.90;1.60;;;;;;;6.20;100.00;97957.97;10208597;28;20104;-65
2022/04/07 19:41:15;;;;;;;9.48;1.80;;;;;;;6.15;100.00;97971.81;10198157;28;20038;-65
2022/04/07 19:46:11;;;;;;;10.23;2.03;;;;;;;6.09;100.00;97963.94;10200263;28;20503;-63
2022/04/07 19:51:08;;;;;;;9.25;1.80;;;;;;;5.91;100.00;97963.53;10207168;28;20077;-64
2022/04/07 19:56:05;;;;;;;8.68;1.70;;;;;;;5.75;100.00;97959.28;10187214;28;20141;-63
2022/04/07 20:01:01;;;;;;;8.07;1.60;;;;;;;5.75;100.00;97945.72;10192321;28;20156;-61
2022/04/07 20:05:58;;;;;;;6.57;1.95;;;;;;;5.42;100.00;97963.19;10187432;28;20042;-62
2022/04/07 20:10:55;;;;;;;11.13;2.88;;;;;;;5.43;100.00;97957.41;10190414;28;20045;-61
2022/04/07 20:15:52;;;;;;;6.03;2.75;;;;;;;5.54;100.00;97943.31;10195736;28;20182;-61
2022/04/07 20:20:49;;;;;;;10.07;2.42;;;;;;;5.58;100.00;97939.56;10191426;28;20046;-62
2022/04/07 20:25:46;;;;;;;11.32;3.00;;;;;;;5.66;100.00;97941.31;10208610;28;20049;-61
2022/04/07 20:30:44;;;;;;;6.97;2.75;;;;;;;5.73;100.00;97951.50;10190335;28;20050;-61
2022/04/07 20:35:42;;;;;;;9.00;2.50;;;;;;;5.63;100.00;97947.41;10198423;28;20081;-61
2022/04/07 20:40:38;;;;;;;9.27;3.35;;;;;;;5.54;100.00;97917.00;10196135;28;20468;-62
2022/04/07 20:45:35;;;;;;;5.50;2.67;;;;;;;5.49;100.00;97936.25;10191085;28;20065;-61
2022/04/07 20:50:31;;;;;;;4.00;1.90;;;;;;;5.34;100.00;97972.25;10187752;28;20096;-62
2022/04/07 20:55:28;;;;;;;5.13;1.80;;;;;;;5.25;100.00;97986.78;10189849;28;20049;-62
2022/04/07 21:00:25;;;;;;;9.45;2.22;;;;;;;5.12;100.00;98009.66;10190331;28;20499;-61
2022/04/07 21:05:21;;;;;;;3.03;1.10;;;;;;;4.99;100.00;97983.75;10191997;28;20136;-61
2022/04/07 21:10:18;;;;;;;4.82;1.45;;;;;;;4.98;100.00;97984.91;10185908;28;20470;-62
2022/04/07 21:15:15;;;;;;;5.65;1.70;;;;;;;5.03;100.00;98001.69;10191078;28;20064;-62
2022/04/07 21:20:12;;;;;;;4.18;1.65;;;;;;;5.06;100.00;97994.81;10187995;28;20050;-62
2022/04/07 21:25:09;;;;;;;5.85;1.52;;;;;;;5.12;100.00;98017.00;10190732;28;20104;-61
2022/04/07 21:30:06;;;;;;;3.75;1.65;;;;;;;5.05;100.00;98023.00;10186789;28;20124;-61
2022/04/07 21:35:03;;;;;;;1.67;0.52;;;;;;;4.89;100.00;98033.81;10191037;28;20188;-62
2022/04/07 21:39:59;;;;;;;2.05;0.70;;;;;;;4.96;100.00;98027.78;10187062;28;20046;-62
2022/04/07 21:44:56;;;;;;;2.33;0.65;;;;;;;4.93;100.00;98031.19;10190717;28;20081;-62
2022/04/07 21:49:52;;;;;;;1.88;0.45;;;;;;;4.94;100.00;98054.44;10182033;28;20045;-62
2022/04/07 21:54:49;;;;;;;7.00;0.80;;;;;;;4.98;100.00;98075.06;10183411;28;20092;-62
2022/04/07 21:59:45;;;;;;;4.28;0.65;;;;;;;4.95;100.00;98089.28;10185763;28;20103;-62
2022/04/07 22:04:42;;;;;;;10.93;1.45;;;;;;;4.98;100.00;98106.78;10182214;28;20136;-62
2022/04/07 22:09:38;;;;;;;7.55;1.10;;;;;;;5.04;100.00;98132.47;10187567;28;20080;-64
2022/04/07 22:14:35;;;;;;;5.32;1.23;;;;;;;5.04;100.00;98148.72;10181910;28;20375;-64
2022/04/07 22:19:31;;;;;;;7.32;1.42;;;;;;;5.10;100.00;98171.72;10182016;28;20417;-64
2022/04/07 22:24:28;;;;;;;11.32;1.65;;;;;;;5.10;100.00;98192.59;10185734;28;20458;-63
2022/04/07 22:29:25;;;;;;;11.50;2.17;;;;;;;5.16;100.00;98210.97;10185158;28;20054;-63
2022/04/07 22:34:21;;;;;;;11.65;1.80;;;;;;;5.21;100.00;98229.69;10173265;28;20304;-63
2022/04/07 22:39:18;;;;;;;27.42;2.50;;;;;;;5.30;100.00;98236.91;10185808;28;20045;-62
2022/04/07 22:44:14;;;;;;;8.20;1.55;;;;;;;5.31;100.00;98260.16;10190328;28;20601;-62
2022/04/07 22:49:11;;;;;;;9.70;2.63;;;;;;;5.35;100.00;98282.75;10179435;28;20069;-63
2022/04/07 22:54:07;;;;;;;10.75;2.20;;;;;;;5.28;100.00;98323.94;10190340;28;20050;-64
2022/04/07 22:59:04;;;;;;;5.43;1.35;;;;;;;5.11;100.00;98316.88;10177537;28;20137;-64
2022/04/07 23:04:00;;;;;;;5.07;1.10;;;;;;;4.99;100.00;98338.53;10189828;28;20136;-64